Time;durP1;ratioP1;P1;durP2;ratioP2;P2;SDS_P1;SDS_P2;PMS_P1;PMS_P2;Temp;Humidity;BMP_temperature;BMP_pressure;BME280_temperature;BME280_humidity;BME280_pressure;Samples;Min_cycle;Max_cycle;Signal;HPM_P1;HPM_P2
2022/12/09 00:00:36;;;;;;;4.60;3.25;;;;;;;0.02;100.00;97613.13;4219226;27;20482;-77
2022/12/09 00:02:37;;;;;;;3.92;2.80;;;;;;;0.00;100.00;97615.38;4216940;28;20361;-77
2022/12/09 00:04:37;;;;;;;5.10;2.97;;;;;;;0.01;100.00;97616.19;4216364;28;20036;-77
2022/12/09 00:06:37;;;;;;;4.70;2.67;;;;;;;-0.02;100.00;97615.69;4217015;27;20365;-77
2022/12/09 00:08:38;;;;;;;4.53;2.92;;;;;;;0.00;100.00;97615.38;4217670;27;20127;-77
2022/12/09 00:10:42;;;;;;;4.10;3.00;;;;;;;-0.03;100.00;97619.53;4217350;28;20123;-77
2022/12/09 00:12:42;;;;;;;4.03;2.72;;;;;;;0.02;100.00;97620.50;4219477;27;20045;-77
2022/12/09 00:14:42;;;;;;;4.35;3.20;;;;;;;0.02;100.00;97613.13;4215964;28;20454;-77
2022/12/09 00:16:43;;;;;;;4.45;3.00;;;;;;;0.02;100.00;97615.84;4219691;27;20566;-77
2022/12/09 00:18:43;;;;;;;3.42;2.50;;;;;;;-0.01;100.00;97617.28;4220712;27;20075;-77
2022/12/09 00:20:44;;;;;;;4.45;2.60;;;;;;;-0.04;100.00;97607.06;4218373;27;20463;-77
2022/12/09 00:22:44;;;;;;;4.65;2.78;;;;;;;-0.01;100.00;97603.69;4218781;27;20043;-77
2022/12/09 00:24:44;;;;;;;4.45;2.90;;;;;;;-0.02;100.00;97607.53;4217671;27;20051;-77
2022/12/09 00:26:45;;;;;;;4.53;2.70;;;;;;;-0.04;100.00;97609.00;4218497;27;20063;-77
2022/12/09 00:28:45;;;;;;;4.82;3.15;;;;;;;-0.04;100.00;97601.63;4218530;27;20119;-77
2022/12/09 00:30:45;;;;;;;5.72;2.88;;;;;;;-0.02;100.00;97607.53;4218475;28;20043;-77
2022/12/09 00:32:46;;;;;;;3.83;2.75;;;;;;;-0.04;100.00;97598.13;4217784;27;20141;-77
2022/12/09 00:34:47;;;;;;;3.72;2.67;;;;;;;-0.03;100.00;97599.72;4210270;28;20052;-77
2022/12/09 00:36:48;;;;;;;3.80;2.93;;;;;;;-0.06;100.00;97601.19;4216698;28;20477;-77
2022/12/09 00:38:49;;;;;;;4.07;2.88;;;;;;;-0.10;100.00;97594.78;4218016;28;20305;-77
2022/12/09 00:40:49;;;;;;;3.75;2.60;;;;;;;-0.09;100.00;97598.31;4217817;27;20044;-77
2022/12/09 00:42:49;;;;;;;4.22;3.10;;;;;;;-0.11;100.00;97589.69;4208252;28;20044;-77
2022/12/09 00:44:50;;;;;;;3.92;2.72;;;;;;;-0.14;100.00;97601.22;4217352;27;20264;-77
2022/12/09 00:46:50;;;;;;;4.00;2.90;;;;;;;-0.15;100.00;97600.44;4216625;27;20131;-77
2022/12/09 00:48:50;;;;;;;5.70;3.03;;;;;;;-0.11;100.00;97597.84;4217888;28;20502;-77
2022/12/09 00:50:51;;;;;;;5.10;2.80;;;;;;;-0.13;100.00;97606.34;4219662;27;20131;-77
2022/12/09 00:52:51;;;;;;;2.85;2.42;;;;;;;-0.12;100.00;97605.19;4216748;28;20104;-77
2022/12/09 00:54:52;;;;;;;3.10;2.65;;;;;;;-0.08;100.00;97610.78;4217864;27;20072;-77
2022/12/09 00:56:52;;;;;;;4.75;3.00;;;;;;;-0.11;100.00;97612.22;4218815;27;20432;-77
2022/12/09 00:58:53;;;;;;;4.25;2.90;;;;;;;-0.05;100.00;97610.13;4215397;28;20127;-77
2022/12/09 01:00:53;;;;;;;5.25;2.90;;;;;;;-0.03;100.00;97610.59;4216609;27;20387;-77
2022/12/09 01:02:54;;;;;;;4.55;2.95;;;;;;;-0.03;100.00;97605.16;4216579;27;20059;-77
2022/12/09 01:04:54;;;;;;;4.60;3.13;;;;;;;-0.05;100.00;97605.47;4219320;28;20040;-77
2022/12/09 01:06:55;;;;;;;4.22;3.05;;;;;;;-0.06;100.00;97606.63;4215744;28;20067;-77
2022/12/09 01:08:55;;;;;;;4.05;3.10;;;;;;;-0.07;100.00;97609.66;4217351;27;20079;-77
2022/12/09 01:10:55;;;;;;;4.28;2.90;;;;;;;-0.07;100.00;97604.22;4218567;27;20051;-77
2022/12/09 01:12:56;;;;;;;5.68;3.10;;;;;;;-0.06;100.00;97606.63;4216558;27;20108;-77
2022/12/09 01:14:56;;;;;;;5.22;3.75;;;;;;;-0.07;100.00;97607.75;4215342;28;20035;-77
2022/12/09 01:16:56;;;;;;;5.55;3.65;;;;;;;-0.08;100.00;97599.91;4210457;28;20399;-77
2022/12/09 01:18:59;;;;;;;5.40;3.80;;;;;;;-0.11;100.00;97606.78;4219273;27;20043;-77
2022/12/09 01:20:59;;;;;;;5.40;3.30;;;;;;;-0.14;100.00;97610.19;4217517;27;20031;-77
2022/12/09 01:23:00;;;;;;;6.32;3.63;;;;;;;-0.17;100.00;97602.66;4213305;28;20082;-77
2022/12/09 01:25:02;;;;;;;7.15;4.03;;;;;;;-0.20;100.00;97605.25;4215970;28;20083;-77
2022/12/09 01:27:02;;;;;;;6.53;3.30;;;;;;;-0.18;100.00;97616.59;4215340;27;20390;-78
2022/12/09 01:29:03;;;;;;;5.72;3.88;;;;;;;-0.20;100.00;97603.34;4218080;27;20035;-77
2022/12/09 01:31:11;;;;;;;6.50;3.72;;;;;;;-0.21;100.00;97607.19;4217898;28;20047;-77
2022/12/09 01:33:11;;;;;;;5.75;3.72;;;;;;;-0.23;100.00;97606.72;4214707;28;20330;-77
2022/12/09 01:35:12;;;;;;;6.60;3.65;;;;;;;-0.25;100.00;97608.94;4214580;27;20058;-77
2022/12/09 01:37:12;;;;;;;6.03;3.45;;;;;;;-0.24;100.00;97613.28;4217552;28;20350;-77
2022/12/09 01:39:13;;;;;;;4.35;3.13;;;;;;;-0.22;100.00;97619.19;4219251;28;20046;-77
2022/12/09 01:41:15;;;;;;;12.80;3.92;;;;;;;-0.21;100.00;97612.63;4219274;28;20086;-77
2022/12/09 01:43:19;;;;;;;5.32;3.50;;;;;;;-0.18;100.00;97613.88;4217359;28;20040;-77
2022/12/09 01:45:29;;;;;;;5.28;3.75;;;;;;;-0.18;100.00;97606.50;4219014;27;20185;-77
2022/12/09 01:47:29;;;;;;;5.10;3.60;;;;;;;-0.20;100.00;97607.97;4207344;28;20304;-77
2022/12/09 01:49:41;;;;;;;4.90;3.30;;;;;;;-0.24;100.00;97604.34;4216233;28;20043;-77
2022/12/09 01:51:46;;;;;;;5.78;3.90;;;;;;;-0.27;100.00;97605.75;4218476;27;20123;-77
2022/12/09 01:53:49;;;;;;;6.50;4.03;;;;;;;-0.33;100.00;97605.19;4216414;28;20082;-77
2022/12/09 01:55:50;;;;;;;5.22;3.70;;;;;;;-0.36;100.00;97596.88;4217383;27;20047;-77
2022/12/09 01:57:51;;;;;;;5.47;3.83;;;;;;;-0.37;100.00;97593.34;4218743;28;20522;-77
2022/12/09 01:59:52;;;;;;;6.22;3.92;;;;;;;-0.33;100.00;97593.50;4209971;28;20056;-77
2022/12/09 02:01:56;;;;;;;5.93;3.17;;;;;;;-0.35;100.00;97598.47;4217472;28;20491;-77
2022/12/09 02:03:56;;;;;;;6.70;3.78;;;;;;;-0.33;100.00;97588.88;4213067;28;20119;-77
2022/12/09 02:05:57;;;;;;;6.70;3.78;;;;;;;-0.36;100.00;97588.72;4217724;28;20518;-77
2022/12/09 02:07:57;;;;;;;5.45;3.92;;;;;;;-0.36;100.00;97591.44;4218436;28;20047;-77
2022/12/09 02:09:58;;;;;;;5.45;3.50;;;;;;;-0.39;100.00;97590.16;4218049;27;20047;-77
2022/12/09 02:12:17;;;;;;;6.07;3.83;;;;;;;-0.38;100.00;97588.25;4218578;28;20123;-77
2022/12/09 02:14:23;;;;;;;5.18;3.53;;;;;;;-0.40;100.00;97588.59;4217015;28;20119;-77
2022/12/09 02:16:26;;;;;;;4.32;3.08;;;;;;;-0.42;100.00;97584.59;4218898;27;20260;-77
2022/12/09 02:18:41;;;;;;;;;;;;;;;-0.41;100.00;97586.19;4219277;28;20461;-77
2022/12/09 02:20:51;;;;;;;5.93;3.45;;;;;;;-0.46;100.00;97584.44;4215395;28;19919;-77
2022/12/09 02:22:57;;;;;;;7.03;3.85;;;;;;;-0.48;100.00;97578.56;4217490;27;20047;-77
2022/12/09 02:25:09;;;;;;;6.13;3.97;;;;;;;-0.51;100.00;97575.69;4217993;28;20054;-77
2022/12/09 02:27:19;;;;;;;5.45;3.58;;;;;;;-0.53;100.00;97567.84;4218918;28;20494;-77
2022/12/09 02:29:51;;;;;;;6.18;3.65;;;;;;;-0.59;100.00;97569.94;4217847;28;20127;-77
2022/12/09 02:31:57;;;;;;;7.68;4.40;;;;;;;-0.62;100.00;97580.69;4218632;28;20547;-77
2022/12/09 02:34:12;;;;;;;6.50;4.30;;;;;;;-0.65;100.00;97574.00;4207801;28;20052;-77
2022/12/09 02:36:17;;;;;;;6.43;4.07;;;;;;;-0.66;100.00;97575.13;4217797;28;20052;-77
2022/12/09 02:38:24;;;;;;;6.85;4.05;;;;;;;-0.69;100.00;97573.03;4215870;28;20031;-77
2022/12/09 02:40:32;;;;;;;7.32;4.45;;;;;;;-0.68;100.00;97573.84;4217378;28;20529;-77
2022/12/09 02:42:35;;;;;;;7.40;4.53;;;;;;;-0.71;100.00;97577.22;4207019;28;20074;-77
2022/12/09 02:44:37;;;;;;;;;;;;;;;-0.74;100.00;97575.97;4219679;28;20035;-77
2022/12/09 02:46:40;;;;;;;7.57;4.50;;;;;;;-0.74;100.00;97578.69;4218192;28;19916;-76
2022/12/09 02:48:46;;;;;;;8.27;4.88;;;;;;;-0.71;100.00;97575.31;4216896;27;20055;-77
2022/12/09 02:50:50;;;;;;;9.85;5.68;;;;;;;-0.68;100.00;97571.13;4216846;27;20915;-77
2022/12/09 02:52:53;;;;;;;9.80;5.10;;;;;;;-0.63;100.00;97573.66;4217531;28;20047;-77
2022/12/09 02:54:54;;;;;;;7.63;4.63;;;;;;;-0.60;100.00;97564.84;4214336;28;20547;-77
2022/12/09 02:57:02;;;;;;;8.05;5.15;;;;;;;-0.58;100.00;97566.13;4218247;27;20060;-77
2022/12/09 02:59:02;;;;;;;9.95;5.05;;;;;;;-0.61;100.00;97574.94;4217578;28;20290;-77
2022/12/09 03:01:03;;;;;;;11.75;5.03;;;;;;;-0.60;100.00;97571.09;4219380;27;20050;-77
2022/12/09 03:03:05;;;;;;;7.43;4.70;;;;;;;-0.61;100.00;97568.69;4217102;27;20333;-77
2022/12/09 03:05:11;;;;;;;8.15;4.97;;;;;;;-0.61;100.00;97565.97;4217515;28;20044;-76
2022/12/09 03:07:39;;;;;;;8.60;5.18;;;;;;;-0.64;100.00;97566.66;4209414;28;20062;-77
2022/12/09 03:09:45;;;;;;;7.70;4.45;;;;;;;-0.66;100.00;97563.47;4219928;28;20051;-77
2022/12/09 03:11:47;;;;;;;7.18;4.25;;;;;;;-0.67;100.00;97567.28;4212721;28;20047;-77
2022/12/09 03:14:07;;;;;;;8.17;5.20;;;;;;;-0.64;100.00;97563.94;4220875;28;20040;-76
2022/12/09 03:16:21;;;;;;;6.78;4.25;;;;;;;-0.65;100.00;97560.41;4219679;27;20281;-77
2022/12/09 03:18:26;;;;;;;10.18;5.45;;;;;;;-0.63;100.00;97560.09;4236420;27;20083;-76
2022/12/09 03:20:29;;;;;;;10.77;5.75;;;;;;;-0.63;100.00;97558.16;4222283;27;20039;-77
2022/12/09 03:22:33;;;;;;;6.10;4.30;;;;;;;-0.62;100.00;97559.75;4218402;28;20040;-77
2022/12/09 03:24:38;;;;;;;8.27;4.55;;;;;;;-0.67;100.00;97554.50;4221800;28;20039;-76
2022/12/09 03:26:40;;;;;;;7.25;4.63;;;;;;;-0.68;100.00;97547.47;4221037;27;20043;-76
2022/12/09 03:28:45;;;;;;;8.25;4.95;;;;;;;-0.72;100.00;97548.47;4216178;28;20031;-77
2022/12/09 03:30:46;;;;;;;8.10;4.47;;;;;;;-0.80;100.00;97541.16;4221056;27;20047;-76
2022/12/09 03:32:47;;;;;;;6.78;4.20;;;;;;;-0.83;100.00;97539.88;4220767;27;20039;-76
2022/12/09 03:34:49;;;;;;;12.15;5.07;;;;;;;-0.86;100.00;97540.53;4219137;27;20650;-76
2022/12/09 03:36:51;;;;;;;7.60;4.07;;;;;;;-0.90;100.00;97539.59;4219061;28;20046;-76
2022/12/09 03:38:53;;;;;;;10.05;4.47;;;;;;;-0.93;100.00;97538.31;4220330;28;20035;-76
2022/12/09 03:41:08;;;;;;;8.32;4.90;;;;;;;-0.94;100.00;97531.28;4220056;28;20039;-76
2022/12/09 03:43:26;;;;;;;8.50;4.65;;;;;;;-1.01;100.00;97522.06;4220765;28;20348;-76
2022/12/09 03:45:27;;;;;;;13.73;4.85;;;;;;;-1.04;100.00;97526.22;4220515;28;20044;-76
2022/12/09 03:47:27;;;;;;;6.85;4.50;;;;;;;-1.11;100.00;97527.84;4220310;27;20039;-76
2022/12/09 03:49:28;;;;;;;7.38;4.43;;;;;;;-1.15;100.00;97531.22;4219836;27;20035;-76
2022/12/09 03:51:39;;;;;;;8.40;4.80;;;;;;;-1.19;100.00;97526.75;4219859;27;20191;-76
2022/12/09 03:53:48;;;;;;;10.52;5.45;;;;;;;-1.18;100.00;97531.84;4219698;28;20073;-76
2022/12/09 03:56:04;;;;;;;7.68;4.53;;;;;;;-1.20;100.00;97528.69;4221298;27;20047;-76
2022/12/09 03:58:09;;;;;;;8.70;4.97;;;;;;;-1.20;100.00;97522.44;4218687;27;20436;-76
2022/12/09 04:00:09;;;;;;;10.32;5.10;;;;;;;-1.21;100.00;97523.56;4220712;27;20119;-76
2022/12/09 04:02:10;;;;;;;9.40;4.85;;;;;;;-1.20;100.00;97525.16;4219345;28;20110;-76
2022/12/09 04:04:11;;;;;;;7.78;4.65;;;;;;;-1.20;100.00;97517.03;4221366;27;20217;-76
2022/12/09 04:06:11;;;;;;;8.10;5.28;;;;;;;-1.25;100.00;97530.75;4219237;27;20038;-76
2022/12/09 04:08:12;;;;;;;8.10;4.50;;;;;;;-1.25;100.00;97531.56;4208151;28;20027;-76
2022/12/09 04:10:12;;;;;;;11.43;4.72;;;;;;;-1.28;100.00;97532.22;4220460;28;20015;-76
2022/12/09 04:12:12;;;;;;;8.98;4.80;;;;;;;-1.32;100.00;97525.06;4221158;28;20032;-76
2022/12/09 04:14:13;;;;;;;13.48;5.47;;;;;;;-1.35;100.00;97522.97;4217951;28;20283;-76
2022/12/09 04:16:13;;;;;;;14.73;5.25;;;;;;;-1.35;100.00;97526.47;4219507;28;20028;-76
2022/12/09 04:18:13;;;;;;;10.05;5.78;;;;;;;-1.35;100.00;97520.25;4221145;28;20365;-76
2022/12/09 04:20:14;;;;;;;7.95;4.70;;;;;;;-1.30;100.00;97522.81;4218619;27;20328;-76
2022/12/09 04:22:14;;;;;;;9.32;4.53;;;;;;;-1.29;100.00;97516.25;4219672;28;20180;-75
2022/12/09 04:24:14;;;;;;;11.18;4.53;;;;;;;-1.31;100.00;97522.00;4220125;28;20588;-75
2022/12/09 04:26:20;;;;;;;8.60;4.70;;;;;;;-1.34;100.00;97516.41;4209408;28;20416;-76
2022/12/09 04:28:20;;;;;;;8.85;4.88;;;;;;;-1.38;100.00;97510.84;4220546;28;20494;-76
2022/12/09 04:30:20;;;;;;;11.00;4.55;;;;;;;-1.41;100.00;97516.91;4218881;28;20048;-76
2022/12/09 04:32:21;;;;;;;10.88;5.80;;;;;;;-1.43;100.00;97511.81;4218836;27;20062;-76
2022/12/09 04:34:21;;;;;;;9.45;4.88;;;;;;;-1.47;100.00;97512.78;4217274;27;20106;-75
2022/12/09 04:36:21;;;;;;;8.23;4.72;;;;;;;-1.46;100.00;97514.38;4219534;28;20384;-76
2022/12/09 04:38:22;;;;;;;11.07;4.35;;;;;;;-1.47;100.00;97515.50;4220680;27;20055;-75
2022/12/09 04:40:22;;;;;;;12.27;5.65;;;;;;;-1.51;100.00;97515.34;4218368;28;20096;-75
2022/12/09 04:42:22;;;;;;;10.93;6.45;;;;;;;-1.56;100.00;97514.72;4216710;28;20058;-75
2022/12/09 04:44:23;;;;;;;12.50;6.18;;;;;;;-1.54;100.00;97515.19;4212922;27;20036;-76
2022/12/09 04:46:23;;;;;;;14.73;6.30;;;;;;;-1.56;100.00;97510.09;4211603;27;20486;-75
2022/12/09 04:48:23;;;;;;;11.57;6.78;;;;;;;-1.57;100.00;97513.94;4214706;27;20039;-76
2022/12/09 04:50:24;;;;;;;17.67;5.85;;;;;;;-1.56;100.00;97515.53;4219440;27;20122;-76
2022/12/09 04:52:24;;;;;;;10.07;5.05;;;;;;;-1.47;100.00;97523.66;4219416;27;20386;-75
2022/12/09 04:54:25;;;;;;;11.07;5.40;;;;;;;-1.48;100.00;97522.84;4220445;27;20478;-76
2022/12/09 04:56:25;;;;;;;11.25;5.63;;;;;;;-1.46;100.00;97517.09;4212461;28;20877;-75
2022/12/09 04:58:25;;;;;;;10.38;5.15;;;;;;;-1.48;100.00;97509.28;4218047;27;20318;-76
2022/12/09 05:00:26;;;;;;;9.32;4.95;;;;;;;-1.53;100.00;97511.38;4219423;27;20435;-75
2022/12/09 05:02:26;;;;;;;9.07;5.35;;;;;;;-1.58;100.00;97512.31;4218695;27;20035;-76
2022/12/09 05:04:26;;;;;;;11.23;6.40;;;;;;;-1.59;100.00;97521.59;4217629;28;20032;-76
2022/12/09 05:06:27;;;;;;;9.20;5.78;;;;;;;-1.59;100.00;97513.44;4219067;27;20502;-76
2022/12/09 05:08:27;;;;;;;10.30;5.93;;;;;;;-1.60;100.00;97513.78;4219156;27;20075;-75
2022/12/09 05:10:28;;;;;;;10.75;6.25;;;;;;;-1.60;100.00;97521.91;4214785;27;20727;-76
2022/12/09 05:12:28;;;;;;;11.00;6.30;;;;;;;-1.61;100.00;97521.13;4216689;27;20298;-76
2022/12/09 05:14:28;;;;;;;11.82;5.22;;;;;;;-1.63;100.00;97522.56;4220169;27;20069;-75
2022/12/09 05:16:29;;;;;;;10.30;6.75;;;;;;;-1.65;100.00;97525.59;4220047;28;20439;-75
2022/12/09 05:18:29;;;;;;;9.50;5.93;;;;;;;-1.67;100.00;97519.69;4216708;27;20724;-75
2022/12/09 05:20:29;;;;;;;12.68;5.13;;;;;;;-1.72;100.00;97515.22;4217148;28;20040;-76
2022/12/09 05:22:30;;;;;;;9.30;5.05;;;;;;;-1.71;100.00;97514.13;4215833;28;20039;-76
2022/12/09 05:24:30;;;;;;;12.55;4.88;;;;;;;-1.72;100.00;97519.88;4218172;28;20278;-75
2022/12/09 05:26:30;;;;;;;9.45;4.43;;;;;;;-1.72;100.00;97509.81;4219530;27;20058;-76
2022/12/09 05:28:32;;;;;;;9.60;5.30;;;;;;;-1.72;100.00;97514.44;4218834;27;20047;-75
2022/12/09 05:30:32;;;;;;;12.15;5.05;;;;;;;-1.68;100.00;97517.28;4219523;28;20130;-76
2022/12/09 05:32:32;;;;;;;10.50;4.80;;;;;;;-1.67;100.00;97513.47;4217527;28;20067;-76
2022/12/09 05:34:33;;;;;;;9.98;5.30;;;;;;;-1.70;100.00;97510.28;4219768;28;20519;-76
2022/12/09 05:36:33;;;;;;;12.18;6.88;;;;;;;-1.71;100.00;97516.03;4208411;28;20138;-76
2022/12/09 05:38:34;;;;;;;13.98;6.82;;;;;;;-1.73;100.00;97510.13;4219762;28;20135;-75
2022/12/09 05:40:35;;;;;;;11.93;6.53;;;;;;;-1.76;100.00;97508.03;4219700;28;20051;-76
2022/12/09 05:42:35;;;;;;;10.27;6.20;;;;;;;-1.76;100.00;97508.03;4218266;27;20126;-75
2022/12/09 05:44:36;;;;;;;8.80;5.47;;;;;;;-1.77;100.00;97517.31;4218046;28;20348;-75
2022/12/09 05:46:36;;;;;;;9.98;5.43;;;;;;;-1.77;100.00;97515.38;4218297;28;20051;-75
2022/12/09 05:48:37;;;;;;;31.40;13.95;;;;;;;-1.79;100.00;97511.41;4219614;28;20035;-76
2022/12/09 05:50:37;;;;;;;20.60;10.68;;;;;;;-1.81;100.00;97508.22;4217982;28;20039;-75
2022/12/09 05:52:37;;;;;;;17.67;8.02;;;;;;;-1.85;100.00;97508.06;4209903;28;20863;-75
2022/12/09 05:54:38;;;;;;;13.80;7.32;;;;;;;-1.81;100.00;97513.66;4164967;28;20531;-75
2022/12/09 05:56:38;;;;;;;21.30;9.90;;;;;;;-1.78;100.00;97511.09;4214778;27;20139;-75
2022/12/09 05:58:38;;;;;;;18.67;8.95;;;;;;;-1.76;100.00;97511.56;4219542;28;20463;-76
2022/12/09 06:00:39;;;;;;;19.92;8.75;;;;;;;-1.68;100.00;97509.94;4215189;27;20081;-76
2022/12/09 06:02:39;;;;;;;18.40;7.70;;;;;;;-1.64;100.00;97508.19;4207962;28;20264;-75
2022/12/09 06:04:40;;;;;;;16.88;9.32;;;;;;;-1.57;100.00;97513.94;4216659;28;20092;-75
2022/12/09 06:06:40;;;;;;;15.43;8.30;;;;;;;-1.48;100.00;97513.91;4218401;28;20081;-76
2022/12/09 06:08:42;;;;;;;11.63;7.63;;;;;;;-1.46;100.00;97515.19;4219453;27;20051;-76
2022/12/09 06:10:42;;;;;;;18.85;9.27;;;;;;;-1.49;100.00;97512.31;4217227;28;20054;-76
2022/12/09 06:12:43;;;;;;;20.83;11.05;;;;;;;-1.52;100.00;97505.63;4214983;28;20055;-75
2022/12/09 06:14:43;;;;;;;17.45;9.75;;;;;;;-1.48;100.00;97505.78;4217645;28;20043;-76
2022/12/09 06:16:43;;;;;;;20.13;10.00;;;;;;;-1.48;100.00;97505.78;4217929;28;20036;-76
2022/12/09 06:18:44;;;;;;;17.67;9.80;;;;;;;-1.49;100.00;97513.13;4214573;28;20258;-75
2022/12/09 06:20:45;;;;;;;18.02;9.18;;;;;;;-1.51;100.00;97501.78;4211656;28;20059;-76
2022/12/09 06:22:45;;;;;;;14.77;8.35;;;;;;;-1.48;100.00;97511.22;4218527;28;20040;-76
2022/12/09 06:24:45;;;;;;;14.20;8.05;;;;;;;-1.48;100.00;97514.72;4214388;28;20272;-76
2022/12/09 06:26:46;;;;;;;12.35;7.45;;;;;;;-1.51;100.00;97500.97;4218328;28;20071;-76
2022/12/09 06:28:47;;;;;;;13.38;6.93;;;;;;;-1.55;100.00;97498.13;4217357;28;20472;-75
2022/12/09 06:30:47;;;;;;;14.93;7.60;;;;;;;-1.56;100.00;97498.47;4216347;28;20260;-75
2022/12/09 06:32:47;;;;;;;11.50;6.35;;;;;;;-1.56;100.00;97504.69;4219101;28;20871;-75
2022/12/09 06:34:48;;;;;;;11.30;6.38;;;;;;;-1.56;100.00;97507.41;4213630;28;20476;-76
2022/12/09 06:36:48;;;;;;;11.43;6.70;;;;;;;-1.56;100.00;97509.31;4211579;28;20123;-75
2022/12/09 06:38:48;;;;;;;12.00;6.70;;;;;;;-1.58;100.00;97498.75;4218128;28;20123;-75
2022/12/09 06:40:48;;;;;;;22.88;9.18;;;;;;;-1.58;100.00;97501.47;4217483;27;20046;-75
2022/12/09 06:42:49;;;;;;;18.60;9.00;;;;;;;-1.58;100.00;97506.91;4219575;27;20406;-75
2022/12/09 06:44:50;;;;;;;17.98;9.70;;;;;;;-1.61;100.00;97495.91;4217829;28;20440;-76
2022/12/09 06:46:50;;;;;;;17.83;10.45;;;;;;;-1.58;100.00;97503.38;4220074;27;20036;-76
2022/12/09 06:48:51;;;;;;;20.33;10.43;;;;;;;-1.61;100.00;97504.84;4221316;28;20127;-75
2022/12/09 06:50:51;;;;;;;14.30;7.40;;;;;;;-1.63;100.00;97503.56;4222463;27;20043;-75
2022/12/09 06:52:52;;;;;;;14.05;7.00;;;;;;;-1.63;100.00;97503.56;4221132;27;20108;-76
2022/12/09 06:54:52;;;;;;;12.57;7.10;;;;;;;-1.64;100.00;97502.00;4221462;28;20532;-76
2022/12/09 06:56:52;;;;;;;12.82;5.95;;;;;;;-1.66;100.00;97502.28;4222057;28;20180;-75
2022/12/09 06:58:53;;;;;;;10.80;5.97;;;;;;;-1.65;100.00;97508.53;4220955;28;20035;-75
2022/12/09 07:00:53;;;;;;;11.02;6.45;;;;;;;-1.66;100.00;97504.19;4221737;28;20040;-75
2022/12/09 07:02:53;;;;;;;17.83;8.25;;;;;;;-1.65;100.00;97498.47;4219881;28;20032;-76
2022/12/09 07:04:55;;;;;;;19.20;8.82;;;;;;;-1.64;100.00;97502.78;4222007;27;20049;-75
2022/12/09 07:06:55;;;;;;;15.98;9.82;;;;;;;-1.62;100.00;97505.16;4221180;27;20035;-75
2022/12/09 07:08:58;;;;;;;16.95;9.38;;;;;;;-1.62;100.00;97500.53;4220350;27;20081;-76
2022/12/09 07:10:59;;;;;;;17.92;10.75;;;;;;;-1.57;100.00;97504.97;4220286;27;20055;-76
2022/12/09 07:12:59;;;;;;;14.77;9.05;;;;;;;-1.57;100.00;97510.41;4219362;28;20307;-76
2022/12/09 07:14:59;;;;;;;17.95;8.07;;;;;;;-1.57;100.00;97511.22;4221434;28;20038;-76
2022/12/09 07:17:00;;;;;;;16.95;8.15;;;;;;;-1.63;100.00;97500.88;4220294;27;20044;-75
2022/12/09 07:19:01;;;;;;;17.65;8.02;;;;;;;-1.60;100.00;97509.13;4222287;27;20463;-75
2022/12/09 07:21:06;;;;;;;13.48;7.40;;;;;;;-1.60;100.00;97506.44;4220881;27;20225;-76
2022/12/09 07:23:07;;;;;;;14.35;8.50;;;;;;;-1.62;100.00;97502.44;4221335;28;20142;-76
2022/12/09 07:25:08;;;;;;;13.75;7.47;;;;;;;-1.62;100.00;97495.09;4220748;27;20127;-75
2022/12/09 07:27:12;;;;;;;19.67;8.60;;;;;;;-1.59;100.00;97499.88;4221118;27;20035;-76
2022/12/09 07:29:12;;;;;;;15.10;8.25;;;;;;;-1.61;100.00;97491.28;4219503;27;20483;-75
2022/12/09 07:31:21;;;;;;;16.42;9.20;;;;;;;-1.59;100.00;97501.78;4220988;28;20122;-75
2022/12/09 07:33:21;;;;;;;18.35;9.82;;;;;;;-1.61;100.00;97498.63;4220686;27;20577;-76
2022/12/09 07:35:21;;;;;;;19.45;9.63;;;;;;;-1.58;100.00;97506.09;4221419;28;20055;-75
2022/12/09 07:37:22;;;;;;;16.63;8.93;;;;;;;-1.61;100.00;97506.75;4220632;28;20509;-75
2022/12/09 07:39:22;;;;;;;15.35;8.05;;;;;;;-1.61;100.00;97501.34;4221407;27;20214;-75
2022/12/09 07:41:23;;;;;;;16.83;8.13;;;;;;;-1.60;100.00;97503.72;4220712;28;20355;-75
2022/12/09 07:43:23;;;;;;;14.68;8.25;;;;;;;-1.56;100.00;97501.19;4219298;27;20043;-75
2022/12/09 07:45:24;;;;;;;22.27;11.57;;;;;;;-1.57;100.00;97504.97;4220756;27;20879;-75
2022/12/09 07:47:24;;;;;;;19.30;10.77;;;;;;;-1.53;100.00;97498.59;4221308;27;20158;-75
2022/12/09 07:49:25;;;;;;;20.67;11.10;;;;;;;-1.52;100.00;97502.09;4219444;27;20054;-75
2022/12/09 07:51:25;;;;;;;15.07;9.27;;;;;;;-1.51;100.00;97507.19;4220844;27;20494;-76
2022/12/09 07:53:25;;;;;;;17.55;9.82;;;;;;;-1.51;100.00;97507.19;4218896;27;20039;-75
2022/12/09 07:55:26;;;;;;;15.23;9.05;;;;;;;-1.52;100.00;97511.03;4219544;27;20039;-76
2022/12/09 07:57:26;;;;;;;15.18;10.15;;;;;;;-1.50;100.00;97510.72;4219800;27;20043;-76
2022/12/09 07:59:26;;;;;;;14.38;8.88;;;;;;;-1.47;100.00;97512.78;4220390;27;20036;-75
2022/12/09 08:01:28;;;;;;;15.57;9.07;;;;;;;-1.47;100.00;97520.94;4210225;28;20081;-75
2022/12/09 08:03:29;;;;;;;18.20;9.80;;;;;;;-1.45;100.00;97516.78;4218682;27;20036;-75
2022/12/09 08:05:29;;;;;;;16.98;9.75;;;;;;;-1.43;100.00;97519.94;4220746;28;20047;-75
2022/12/09 08:07:29;;;;;;;19.42;9.45;;;;;;;-1.41;100.00;97516.91;4220606;28;20044;-76
2022/12/09 08:09:30;;;;;;;19.10;10.32;;;;;;;-1.40;100.00;97517.72;4221124;28;20252;-76
2022/12/09 08:11:31;;;;;;;25.13;12.48;;;;;;;-1.40;100.00;97523.16;4219817;28;20043;-75
2022/12/09 08:13:31;;;;;;;26.40;13.60;;;;;;;-1.38;100.00;97519.00;4218130;28;20060;-75
2022/12/09 08:15:32;;;;;;;22.48;11.98;;;;;;;-1.35;100.00;97522.97;4220759;27;20051;-75
2022/12/09 08:17:32;;;;;;;21.27;10.82;;;;;;;-1.30;100.00;97534.47;4219329;28;20040;-75
2022/12/09 08:19:33;;;;;;;21.23;10.05;;;;;;;-1.29;100.00;97532.53;4220873;28;20154;-75
2022/12/09 08:21:33;;;;;;;18.98;9.45;;;;;;;-1.27;100.00;97539.22;4219177;28;20057;-75
2022/12/09 08:23:34;;;;;;;17.17;10.30;;;;;;;-1.26;100.00;97531.88;4220091;27;20043;-76
2022/12/09 08:25:34;;;;;;;19.95;10.50;;;;;;;-1.26;100.00;97518.31;4221112;28;20342;-76
2022/12/09 08:27:34;;;;;;;19.88;12.05;;;;;;;-1.27;100.00;97520.22;4219797;28;20043;-76
2022/12/09 08:29:35;;;;;;;25.23;12.60;;;;;;;-1.27;100.00;97528.38;4220461;28;20058;-76
2022/12/09 08:31:35;;;;;;;18.85;10.10;;;;;;;-1.27;100.00;97522.94;4219351;28;20047;-75
2022/12/09 08:33:37;;;;;;;20.10;11.82;;;;;;;-1.28;100.00;97515.94;4219375;27;20055;-76
2022/12/09 08:35:37;;;;;;;18.88;10.85;;;;;;;-1.23;100.00;97521.19;4218308;27;20047;-76
2022/12/09 08:37:37;;;;;;;25.30;13.52;;;;;;;-1.22;100.00;97513.84;4219481;27;20150;-75
2022/12/09 08:39:38;;;;;;;24.65;14.10;;;;;;;-1.20;100.00;97520.53;4220102;28;20036;-75
2022/12/09 08:41:39;;;;;;;31.15;18.13;;;;;;;-1.16;100.00;97509.81;4219432;28;20052;-76
2022/12/09 08:43:40;;;;;;;30.20;17.30;;;;;;;-1.13;100.00;97518.13;4218610;27;20383;-75
2022/12/09 08:45:40;;;;;;;27.73;16.13;;;;;;;-1.08;100.00;97516.34;4220085;27;20703;-76
2022/12/09 08:47:41;;;;;;;22.88;12.35;;;;;;;-1.05;100.00;97515.69;4220056;28;20054;-76
2022/12/09 08:49:42;;;;;;;18.73;10.30;;;;;;;-1.03;100.00;97513.44;4220157;28;20797;-75
2022/12/09 08:51:43;;;;;;;17.55;9.57;;;;;;;-1.04;100.00;97514.56;4218977;28;20047;-76
2022/12/09 08:53:44;;;;;;;19.20;9.60;;;;;;;-1.00;100.00;97507.34;4219335;27;20562;-75
2022/12/09 08:55:44;;;;;;;18.98;10.18;;;;;;;-1.00;100.00;97519.00;4219744;28;20075;-76
2022/12/09 08:57:44;;;;;;;21.25;9.35;;;;;;;-0.97;100.00;97515.66;4220117;28;20074;-75
2022/12/09 08:59:45;;;;;;;20.02;9.23;;;;;;;-0.92;100.00;97504.59;4219474;28;20562;-75
2022/12/09 09:01:46;;;;;;;17.02;8.50;;;;;;;-0.90;100.00;97505.09;4219156;27;20048;-76
2022/12/09 09:03:47;;;;;;;17.50;9.30;;;;;;;-0.82;100.00;97510.81;4218122;28;20067;-75
2022/12/09 09:05:47;;;;;;;17.75;10.13;;;;;;;-0.77;100.00;97508.69;4218229;28;20223;-75
2022/12/09 09:07:48;;;;;;;18.90;10.13;;;;;;;-0.70;100.00;97508.97;4219603;27;20036;-76
2022/12/09 09:09:48;;;;;;;17.30;9.85;;;;;;;-0.63;100.00;97509.25;4218716;28;20501;-76
2022/12/09 09:11:48;;;;;;;15.88;9.43;;;;;;;-0.58;100.00;97495.50;4218692;28;20050;-75
2022/12/09 09:13:52;;;;;;;18.27;10.38;;;;;;;-0.49;100.00;97497.38;4219005;28;20038;-75
2022/12/09 09:15:53;;;;;;;15.45;9.07;;;;;;;-0.44;100.00;97503.38;4218643;28;20130;-76
2022/12/09 09:17:53;;;;;;;14.63;8.15;;;;;;;-0.42;100.00;97503.03;4219638;27;20091;-75
2022/12/09 09:19:53;;;;;;;15.23;9.38;;;;;;;-0.41;100.00;97507.38;4218851;28;20498;-75
2022/12/09 09:21:54;;;;;;;16.67;9.38;;;;;;;-0.38;100.00;97512.94;4219312;27;20046;-76